Address 0xea56343b6d54483f341a1ccc7c182afefe04e0a0 1

 

Overview

Balance:
0 BNB

BNB Value:
$0.00

Token:
Txn Hash
Block
From
To
Value [Txn Fee]
0x6d5ff8edf404541928255995601291ad3881766404fdcfb9f53397fa5dc06f6d80314742021-06-05 12:12:4360 days 4 hrs ago0xea56343b6d54483f341a1ccc7c182afefe04e0a0OUT0x37cf1c1e11e505b0f35ecf9220317dafd856f66d0.020447719903745 BNB0.000105
0xe162d9944ff2073cb3becd7580fe18df434f571cb5f7a33caeabd89a68f44da280229752021-06-05 5:06:2060 days 11 hrs ago0xea56343b6d54483f341a1ccc7c182afefe04e0a0SELF0xea56343b6d54483f341a1ccc7c182afefe04e0a00.020552719903745 BNB0.000105
0x1af34d3be7b098738ccf965c931508602ed83cd484ef26b1b57e41194885111c80229372021-06-05 5:04:2660 days 11 hrs ago0xea56343b6d54483f341a1ccc7c182afefe04e0a0SELF0xea56343b6d54483f341a1ccc7c182afefe04e0a00.020657719903745 BNB0.000105
0x6c6fa22633362ef57307b86d000dbc7de1a61265965a039287ff2b8c5a528e2d80206062021-06-05 3:07:1960 days 13 hrs ago0xea56343b6d54483f341a1ccc7c182afefe04e0a0OUT 0xf40c1f421ee02a550afdd8712ef34dce97eec6f20 BNB0.00029361
0xb948fd39853b013476526c7b51f46f69570f560c1c4eda42f7b5e58355bbde7880205812021-06-05 3:06:0460 days 13 hrs ago0xea56343b6d54483f341a1ccc7c182afefe04e0a0OUT 0xf40c1f421ee02a550afdd8712ef34dce97eec6f20 BNB0.00029361
0xd4405875990a3adb36cfd8ac1e38da8c073c7ef25ceea058fa3020b052fb48d180205722021-06-05 3:05:3760 days 13 hrs ago0xea56343b6d54483f341a1ccc7c182afefe04e0a0OUT 0xf40c1f421ee02a550afdd8712ef34dce97eec6f20 BNB0.00029361
0x05da13901f1b0b963941ca71afa66f77238a75ee9f1719c27a0b55cd8f8d2b7880205432021-06-05 3:04:1060 days 13 hrs ago0xea56343b6d54483f341a1ccc7c182afefe04e0a0OUT 0xf40c1f421ee02a550afdd8712ef34dce97eec6f20 BNB0.00029361
0x35e989a5d48449acd27b89bfe35564eb8a90ddb9f63fde8968cd8671c8c2cdc180205412021-06-05 3:04:0460 days 13 hrs ago0xea56343b6d54483f341a1ccc7c182afefe04e0a0OUT 0xf40c1f421ee02a550afdd8712ef34dce97eec6f20 BNB0.00029361
0xdcd9edafc57165fe872c83d526d556df8a83f92f9f35b336bae4ed9d0fbdbad780205382021-06-05 3:03:5560 days 13 hrs ago0xea56343b6d54483f341a1ccc7c182afefe04e0a0OUT 0xf40c1f421ee02a550afdd8712ef34dce97eec6f20 BNB0.00029361
0xa6f7b592a6c1b7e0e966837b36cc3363a2a1444efd7e37e3c22d5c49624ed87e80205352021-06-05 3:03:4660 days 13 hrs ago0xea56343b6d54483f341a1ccc7c182afefe04e0a0OUT 0xf40c1f421ee02a550afdd8712ef34dce97eec6f20 BNB0.00029361
0x681de82ac3f39dafbeea32afcdb6c255a6e668420db830549ebb99090d12249180059382021-06-04 14:52:5961 days 1 hr ago0xea56343b6d54483f341a1ccc7c182afefe04e0a0OUT 0xf62723f8b7bf9962d9577f099e7bb1bdf97156100 BNB0.000287515
0x2cb339a5eb50360f64d6a109ca2ef9bd37ea34418001e5300aa438cb31abc13b80047162021-06-04 13:51:5361 days 3 hrs ago0xea56343b6d54483f341a1ccc7c182afefe04e0a0OUT 0x0b771e34526886d9fff8e764cf557d1cb5943c890 BNB0.000266515
0x36c29e385ac97c2e4224ee4a680c67d806040647da3501079ce96f5e3033243780047122021-06-04 13:51:4161 days 3 hrs ago0xea56343b6d54483f341a1ccc7c182afefe04e0a0OUT 0x0b771e34526886d9fff8e764cf557d1cb5943c890 BNB0.000341515
0x348ce469b9517e03124e8dbf4305461950702c8d56dee3f963da6225c44a466879946682021-06-04 5:28:5361 days 11 hrs ago0xea56343b6d54483f341a1ccc7c182afefe04e0a0OUT PancakeSwap: Router v20 BNB0.00061301
0x08ae8105e60881ab96267f4299ff0090edc32c684e9839c2afe1976595ef46fb79946612021-06-04 5:28:3261 days 11 hrs ago0xea56343b6d54483f341a1ccc7c182afefe04e0a0OUT Ethereum: ETH Token0 BNB0.00022203
0xbfe76f88be075f050e1bcc843eeea1cfda6ea8ea12204573e8d18fd8f127b88279945862021-06-04 5:24:4761 days 11 hrs ago0xea56343b6d54483f341a1ccc7c182afefe04e0a0OUT PancakeSwap: Router v20.015247972560019 BNB0.00067164
0x9f8607fb2e88d23ee38894c70c4ae60c54d803fb15a82c51cc898a3abb31aaf579945652021-06-04 5:23:4461 days 11 hrs ago0x37cf1c1e11e505b0f35ecf9220317dafd856f66d IN 0xea56343b6d54483f341a1ccc7c182afefe04e0a00.011974445 BNB0.000105
0x1ee89f3b534cf41a69ac5e5e70609c3660656d7c9f1eea79498f2c10ae2fa77879816952021-06-03 18:36:0961 days 22 hrs ago0xea56343b6d54483f341a1ccc7c182afefe04e0a0OUT 0x0b2dd54daecd2915a4cefb3110cbda4704e78da90 BNB0.00011029
0xcf8f8da19113645bdb90c1e3330fde9ec9c7fce495e3ecef86e38800af2f298d79814332021-06-03 18:23:0361 days 22 hrs ago0xea56343b6d54483f341a1ccc7c182afefe04e0a0OUT Maxima: MAX Token0 BNB0.00036861
0x3edf7c4c9ea1a55eb388597523ee7fff1c8a179251e819d5ba54359eee444b6479624092021-06-03 2:28:1962 days 14 hrs ago0xea56343b6d54483f341a1ccc7c182afefe04e0a0OUT PancakeSwap: Router v20.01 BNB0.000890495
0x107565dec48ce286e4050c205e41078e3dfb8e79f785848c8e3d4f1114b3442279542792021-06-02 19:41:0262 days 21 hrs ago0xea56343b6d54483f341a1ccc7c182afefe04e0a0OUT Humming Bird Finance: HMNG Token0 BNB0.00034793
0xac832379da1e92f1fe2ebd72be58027e964253c5b5517b5a229d415c549ff3ca79542332021-06-02 19:38:4462 days 21 hrs ago0x37cf1c1e11e505b0f35ecf9220317dafd856f66d IN 0xea56343b6d54483f341a1ccc7c182afefe04e0a00.02 BNB0.000105
0xfeb8c253197b37794c020b43cf732aa52f446920a6d0c8c7771929e53dd6a6db79508212021-06-02 16:47:5363 days 4 mins ago0xea56343b6d54483f341a1ccc7c182afefe04e0a0OUT PancakeSwap: Router v20.01 BNB0.000965495
0x2d95da53a786798c2114d1cd625afcd1aad890ae922a0dd411019fe83757d35c79103052021-06-01 6:55:5264 days 9 hrs ago0xea56343b6d54483f341a1ccc7c182afefe04e0a0OUT 0x0b2dd54daecd2915a4cefb3110cbda4704e78da90 BNB0.00029361
0xb5c5e9c2354a809174ec953f94402cf0b4b77e982502cc4c2dec4b522eec67bd79103032021-06-01 6:55:4664 days 9 hrs ago0xea56343b6d54483f341a1ccc7c182afefe04e0a0OUT 0x0b2dd54daecd2915a4cefb3110cbda4704e78da90 BNB0.00029361
[ Download CSV Export 
Latest 7 internal transactions
Parent Txn Hash Block From To Value
0x348ce469b9517e03124e8dbf4305461950702c8d56dee3f963da6225c44a466879946682021-06-04 5:28:5361 days 11 hrs ago PancakeSwap: Router v20xea56343b6d54483f341a1ccc7c182afefe04e0a00.015220214903745646 BNB
0x7e33a00f727586e7a2f63ee20ae9eae32b35758202e0d08baecb95cc8a4e6cc378504362021-05-30 4:49:2766 days 12 hrs ago PancakeSwap: Router v20xea56343b6d54483f341a1ccc7c182afefe04e0a00.003508769483556369 BNB
0xa6f89364dade287757915a088493adf5736f0b93fda253963ec70976f62aea9378503722021-05-30 4:46:1566 days 12 hrs ago PancakeSwap: Router v20xea56343b6d54483f341a1ccc7c182afefe04e0a00.005333666956949167 BNB
0xddee38c53a6db10aea739c84fd0f42297fa4b14d2e0bd056a1370c850337644477631582021-05-27 3:47:2269 days 13 hrs ago PancakeSwap: Router v20xea56343b6d54483f341a1ccc7c182afefe04e0a00.021187278701103083 BNB
0x5c25552cb9455ce4046ca5d3cc7225713c3af8e578c8e636a8e77774c7610bc775257302021-05-18 20:40:1677 days 20 hrs ago PancakeSwap: Router v20xea56343b6d54483f341a1ccc7c182afefe04e0a00.079604219068121395 BNB
0x739843c91026c9e27d9e85378b6c839db7be243c64f86f859de6dfc7b62d79e674812192021-05-17 6:56:1379 days 9 hrs ago PancakeSwap: Router v20xea56343b6d54483f341a1ccc7c182afefe04e0a00.021664113724800575 BNB
0x1a0247303f167d92adbc382693a51426290647b7b1590e10dc98974961cd38c674095412021-05-14 18:06:3881 days 22 hrs ago PancakeSwap: Router v20xea56343b6d54483f341a1ccc7c182afefe04e0a00.257773717425489116 BNB
[ Download CSV Export 
Loading

Contract Name:
0 BNB

Compiler Version
0

Optimization Enabled:
0 BNB

Other Settings:
-NA-
Block Transaction Gas Used Reward
Age Block Fee Address BC Fee Address Voting Power Jailed Incoming
Block Uncle Number Difficulty Gas Used Reward
Loading
Loading
Make sure to use the "Vote Down" button for any spammy posts, and the "Vote Up" for interesting conversations.